sensor_id;sensor_type;location;lat;lon;timestamp;P1;durP1;ratioP1;P2;durP2;ratioP2
14040;SDS011;7095;51.388;6.196;2022-11-12T00:00:59;13.33;;;6.70;;
14040;SDS011;7095;51.388;6.196;2022-11-12T00:03:47;15.57;;;7.30;;
14040;SDS011;7095;51.388;6.196;2022-11-12T00:06:34;10.07;;;6.13;;
14040;SDS011;7095;51.388;6.196;2022-11-12T00:09:21;16.73;;;6.70;;
14040;SDS011;7095;51.388;6.196;2022-11-12T00:12:08;7.63;;;6.43;;
14040;SDS011;7095;51.388;6.196;2022-11-12T00:14:55;8.97;;;6.07;;
14040;SDS011;7095;51.388;6.196;2022-11-12T00:17:43;8.43;;;5.93;;
14040;SDS011;7095;51.388;6.196;2022-11-12T00:20:30;11.23;;;6.10;;
14040;SDS011;7095;51.388;6.196;2022-11-12T00:23:18;15.70;;;6.63;;
14040;SDS011;7095;51.388;6.196;2022-11-12T00:26:05;11.70;;;6.50;;
14040;SDS011;7095;51.388;6.196;2022-11-12T00:28:52;13.63;;;7.13;;
14040;SDS011;7095;51.388;6.196;2022-11-12T00:31:42;12.90;;;7.10;;
14040;SDS011;7095;51.388;6.196;2022-11-12T00:34:30;8.97;;;5.90;;
14040;SDS011;7095;51.388;6.196;2022-11-12T00:37:18;10.57;;;5.80;;
14040;SDS011;7095;51.388;6.196;2022-11-12T00:40:09;11.87;;;6.43;;
14040;SDS011;7095;51.388;6.196;2022-11-12T00:42:56;16.87;;;7.53;;
14040;SDS011;7095;51.388;6.196;2022-11-12T00:45:44;10.37;;;6.63;;
14040;SDS011;7095;51.388;6.196;2022-11-12T00:48:32;7.87;;;5.83;;
14040;SDS011;7095;51.388;6.196;2022-11-12T00:51:20;10.53;;;6.20;;
14040;SDS011;7095;51.388;6.196;2022-11-12T00:54:08;8.73;;;5.97;;
14040;SDS011;7095;51.388;6.196;2022-11-12T00:56:55;12.47;;;6.73;;
14040;SDS011;7095;51.388;6.196;2022-11-12T00:59:42;11.93;;;7.00;;
14040;SDS011;7095;51.388;6.196;2022-11-12T01:02:29;10.47;;;6.63;;
14040;SDS011;7095;51.388;6.196;2022-11-12T01:05:26;11.20;;;6.47;;
14040;SDS011;7095;51.388;6.196;2022-11-12T01:08:15;8.97;;;6.17;;
14040;SDS011;7095;51.388;6.196;2022-11-12T01:11:06;10.73;;;6.07;;
14040;SDS011;7095;51.388;6.196;2022-11-12T01:13:56;11.10;;;6.67;;
14040;SDS011;7095;51.388;6.196;2022-11-12T01:16:44;14.10;;;6.80;;
14040;SDS011;7095;51.388;6.196;2022-11-12T01:19:32;13.83;;;5.93;;
14040;SDS011;7095;51.388;6.196;2022-11-12T01:22:19;10.73;;;6.73;;
14040;SDS011;7095;51.388;6.196;2022-11-12T01:25:08;10.30;;;6.30;;
14040;SDS011;7095;51.388;6.196;2022-11-12T01:27:55;15.03;;;6.00;;
14040;SDS011;7095;51.388;6.196;2022-11-12T01:30:44;11.57;;;6.53;;
14040;SDS011;7095;51.388;6.196;2022-11-12T01:33:31;8.60;;;5.60;;
14040;SDS011;7095;51.388;6.196;2022-11-12T01:36:18;8.63;;;6.33;;
14040;SDS011;7095;51.388;6.196;2022-11-12T01:39:07;10.30;;;7.43;;
14040;SDS011;7095;51.388;6.196;2022-11-12T01:41:56;13.40;;;7.00;;
14040;SDS011;7095;51.388;6.196;2022-11-12T01:44:44;10.83;;;6.93;;
14040;SDS011;7095;51.388;6.196;2022-11-12T01:47:31;12.57;;;6.33;;
14040;SDS011;7095;51.388;6.196;2022-11-12T01:50:20;11.70;;;5.87;;
14040;SDS011;7095;51.388;6.196;2022-11-12T01:53:12;8.10;;;5.50;;
14040;SDS011;7095;51.388;6.196;2022-11-12T01:56:03;13.33;;;5.90;;
14040;SDS011;7095;51.388;6.196;2022-11-12T01:58:55;9.23;;;5.83;;
14040;SDS011;7095;51.388;6.196;2022-11-12T02:01:46;9.43;;;6.17;;
14040;SDS011;7095;51.388;6.196;2022-11-12T02:04:34;7.93;;;6.00;;
14040;SDS011;7095;51.388;6.196;2022-11-12T02:07:22;9.80;;;5.87;;
14040;SDS011;7095;51.388;6.196;2022-11-12T02:10:10;14.53;;;7.67;;
14040;SDS011;7095;51.388;6.196;2022-11-12T02:12:58;17.53;;;6.00;;
14040;SDS011;7095;51.388;6.196;2022-11-12T02:16:05;9.13;;;6.23;;
14040;SDS011;7095;51.388;6.196;2022-11-12T02:18:54;8.00;;;6.00;;
14040;SDS011;7095;51.388;6.196;2022-11-12T02:21:42;7.00;;;4.63;;
14040;SDS011;7095;51.388;6.196;2022-11-12T02:24:31;10.17;;;6.20;;
14040;SDS011;7095;51.388;6.196;2022-11-12T02:27:21;8.63;;;5.67;;
14040;SDS011;7095;51.388;6.196;2022-11-12T02:30:09;9.63;;;5.93;;
14040;SDS011;7095;51.388;6.196;2022-11-12T02:32:58;8.63;;;5.47;;
14040;SDS011;7095;51.388;6.196;2022-11-12T02:35:46;26.87;;;5.67;;
14040;SDS011;7095;51.388;6.196;2022-11-12T02:38:37;10.77;;;5.70;;
14040;SDS011;7095;51.388;6.196;2022-11-12T02:41:24;8.47;;;5.77;;
14040;SDS011;7095;51.388;6.196;2022-11-12T02:44:11;8.80;;;5.60;;
14040;SDS011;7095;51.388;6.196;2022-11-12T02:46:58;9.23;;;5.17;;
14040;SDS011;7095;51.388;6.196;2022-11-12T02:49:46;7.37;;;4.73;;
14040;SDS011;7095;51.388;6.196;2022-11-12T02:52:33;15.13;;;6.53;;
14040;SDS011;7095;51.388;6.196;2022-11-12T02:55:22;12.43;;;6.17;;
14040;SDS011;7095;51.388;6.196;2022-11-12T02:58:10;10.53;;;5.50;;
14040;SDS011;7095;51.388;6.196;2022-11-12T03:00:57;8.30;;;5.63;;
14040;SDS011;7095;51.388;6.196;2022-11-12T03:03:44;11.63;;;5.93;;
14040;SDS011;7095;51.388;6.196;2022-11-12T03:06:31;13.50;;;6.47;;
14040;SDS011;7095;51.388;6.196;2022-11-12T03:09:18;9.43;;;5.87;;
14040;SDS011;7095;51.388;6.196;2022-11-12T03:12:07;7.87;;;5.57;;
14040;SDS011;7095;51.388;6.196;2022-11-12T03:14:55;10.10;;;6.30;;
14040;SDS011;7095;51.388;6.196;2022-11-12T03:17:42;9.63;;;6.77;;
14040;SDS011;7095;51.388;6.196;2022-11-12T03:20:29;12.47;;;7.23;;
14040;SDS011;7095;51.388;6.196;2022-11-12T03:23:19;9.87;;;6.57;;
14040;SDS011;7095;51.388;6.196;2022-11-12T03:26:06;11.60;;;6.70;;
14040;SDS011;7095;51.388;6.196;2022-11-12T03:28:54;12.53;;;6.73;;
14040;SDS011;7095;51.388;6.196;2022-11-12T03:31:42;12.00;;;6.23;;
14040;SDS011;7095;51.388;6.196;2022-11-12T03:34:29;12.40;;;6.87;;
14040;SDS011;7095;51.388;6.196;2022-11-12T03:37:16;11.47;;;5.87;;
14040;SDS011;7095;51.388;6.196;2022-11-12T03:40:04;16.20;;;7.87;;
14040;SDS011;7095;51.388;6.196;2022-11-12T03:42:52;8.97;;;6.70;;
14040;SDS011;7095;51.388;6.196;2022-11-12T03:45:41;14.77;;;6.90;;
14040;SDS011;7095;51.388;6.196;2022-11-12T03:48:29;17.80;;;8.40;;
14040;SDS011;7095;51.388;6.196;2022-11-12T03:51:17;9.40;;;7.27;;
14040;SDS011;7095;51.388;6.196;2022-11-12T03:54:05;11.83;;;7.97;;
14040;SDS011;7095;51.388;6.196;2022-11-12T03:56:52;10.37;;;7.67;;
14040;SDS011;7095;51.388;6.196;2022-11-12T03:59:39;11.57;;;7.27;;
14040;SDS011;7095;51.388;6.196;2022-11-12T04:02:27;11.83;;;6.30;;
14040;SDS011;7095;51.388;6.196;2022-11-12T04:05:16;13.07;;;7.53;;
14040;SDS011;7095;51.388;6.196;2022-11-12T04:08:21;14.17;;;7.20;;
14040;SDS011;7095;51.388;6.196;2022-11-12T04:11:22;12.03;;;7.33;;
14040;SDS011;7095;51.388;6.196;2022-11-12T04:14:08;19.10;;;8.00;;
14040;SDS011;7095;51.388;6.196;2022-11-12T04:16:56;13.03;;;8.73;;
14040;SDS011;7095;51.388;6.196;2022-11-12T04:20:02;12.07;;;7.40;;
14040;SDS011;7095;51.388;6.196;2022-11-12T04:23:07;10.67;;;6.73;;
14040;SDS011;7095;51.388;6.196;2022-11-12T04:25:54;10.60;;;6.60;;
14040;SDS011;7095;51.388;6.196;2022-11-12T04:28:59;12.13;;;6.97;;
14040;SDS011;7095;51.388;6.196;2022-11-12T04:32:04;14.33;;;7.27;;
14040;SDS011;7095;51.388;6.196;2022-11-12T04:34:51;16.27;;;8.30;;
14040;SDS011;7095;51.388;6.196;2022-11-12T04:37:40;17.87;;;7.63;;
14040;SDS011;7095;51.388;6.196;2022-11-12T04:40:31;10.90;;;6.37;;
14040;SDS011;7095;51.388;6.196;2022-11-12T04:43:35;13.10;;;8.23;;
14040;SDS011;7095;51.388;6.196;2022-11-12T04:46:40;15.53;;;9.17;;
14040;SDS011;7095;51.388;6.196;2022-11-12T04:49:28;14.03;;;9.10;;
14040;SDS011;7095;51.388;6.196;2022-11-12T04:52:15;10.87;;;7.77;;
14040;SDS011;7095;51.388;6.196;2022-11-12T04:55:05;12.87;;;7.53;;
14040;SDS011;7095;51.388;6.196;2022-11-12T04:57:52;15.43;;;9.20;;
14040;SDS011;7095;51.388;6.196;2022-11-12T05:00:45;10.97;;;7.67;;
14040;SDS011;7095;51.388;6.196;2022-11-12T05:03:33;13.13;;;7.63;;
14040;SDS011;7095;51.388;6.196;2022-11-12T05:06:20;12.07;;;7.53;;
14040;SDS011;7095;51.388;6.196;2022-11-12T05:09:25;12.97;;;8.23;;
14040;SDS011;7095;51.388;6.196;2022-11-12T05:12:15;16.13;;;9.30;;
14040;SDS011;7095;51.388;6.196;2022-11-12T05:15:02;14.00;;;8.50;;
14040;SDS011;7095;51.388;6.196;2022-11-12T05:17:49;13.50;;;9.23;;
14040;SDS011;7095;51.388;6.196;2022-11-12T05:20:37;17.87;;;9.73;;
14040;SDS011;7095;51.388;6.196;2022-11-12T05:23:23;16.13;;;8.50;;
14040;SDS011;7095;51.388;6.196;2022-11-12T05:26:10;17.00;;;9.30;;
14040;SDS011;7095;51.388;6.196;2022-11-12T05:28:59;11.30;;;7.87;;
14040;SDS011;7095;51.388;6.196;2022-11-12T05:31:53;16.60;;;9.47;;
14040;SDS011;7095;51.388;6.196;2022-11-12T05:34:41;10.33;;;7.63;;
14040;SDS011;7095;51.388;6.196;2022-11-12T05:37:28;14.47;;;7.33;;
14040;SDS011;7095;51.388;6.196;2022-11-12T05:40:15;17.97;;;8.53;;
14040;SDS011;7095;51.388;6.196;2022-11-12T05:43:02;13.03;;;8.40;;
14040;SDS011;7095;51.388;6.196;2022-11-12T05:45:51;16.40;;;7.67;;
14040;SDS011;7095;51.388;6.196;2022-11-12T05:48:39;12.03;;;8.83;;
14040;SDS011;7095;51.388;6.196;2022-11-12T05:51:26;13.07;;;8.57;;
14040;SDS011;7095;51.388;6.196;2022-11-12T05:54:13;13.33;;;8.17;;
14040;SDS011;7095;51.388;6.196;2022-11-12T05:57:01;16.47;;;9.47;;
14040;SDS011;7095;51.388;6.196;2022-11-12T05:59:48;14.17;;;9.20;;
14040;SDS011;7095;51.388;6.196;2022-11-12T06:02:37;16.27;;;9.23;;
14040;SDS011;7095;51.388;6.196;2022-11-12T06:05:24;14.83;;;8.53;;
14040;SDS011;7095;51.388;6.196;2022-11-12T06:08:11;16.17;;;9.43;;
14040;SDS011;7095;51.388;6.196;2022-11-12T06:10:59;18.33;;;11.40;;
14040;SDS011;7095;51.388;6.196;2022-11-12T06:13:48;14.03;;;10.77;;
14040;SDS011;7095;51.388;6.196;2022-11-12T06:16:35;15.33;;;9.33;;
14040;SDS011;7095;51.388;6.196;2022-11-12T06:19:23;13.00;;;8.30;;
14040;SDS011;7095;51.388;6.196;2022-11-12T06:22:10;13.47;;;7.80;;
14040;SDS011;7095;51.388;6.196;2022-11-12T06:24:57;12.23;;;8.30;;
14040;SDS011;7095;51.388;6.196;2022-11-12T06:27:45;12.17;;;7.77;;
14040;SDS011;7095;51.388;6.196;2022-11-12T06:30:31;12.07;;;8.07;;
14040;SDS011;7095;51.388;6.196;2022-11-12T06:33:19;13.50;;;9.23;;
14040;SDS011;7095;51.388;6.196;2022-11-12T06:36:09;13.23;;;8.60;;
14040;SDS011;7095;51.388;6.196;2022-11-12T06:38:57;16.90;;;9.47;;
14040;SDS011;7095;51.388;6.196;2022-11-12T06:41:44;13.43;;;9.27;;
14040;SDS011;7095;51.388;6.196;2022-11-12T06:44:31;14.50;;;10.17;;
14040;SDS011;7095;51.388;6.196;2022-11-12T06:47:18;12.67;;;7.70;;
14040;SDS011;7095;51.388;6.196;2022-11-12T06:50:05;13.27;;;8.50;;
14040;SDS011;7095;51.388;6.196;2022-11-12T06:52:57;14.57;;;9.27;;
14040;SDS011;7095;51.388;6.196;2022-11-12T06:55:45;14.77;;;8.50;;
14040;SDS011;7095;51.388;6.196;2022-11-12T06:58:32;14.77;;;8.80;;
14040;SDS011;7095;51.388;6.196;2022-11-12T07:01:20;17.40;;;8.37;;
14040;SDS011;7095;51.388;6.196;2022-11-12T07:04:07;12.70;;;8.13;;
14040;SDS011;7095;51.388;6.196;2022-11-12T07:06:55;15.37;;;8.73;;
14040;SDS011;7095;51.388;6.196;2022-11-12T07:09:44;11.90;;;8.77;;
14040;SDS011;7095;51.388;6.196;2022-11-12T07:12:32;11.63;;;8.30;;
14040;SDS011;7095;51.388;6.196;2022-11-12T07:15:19;12.83;;;9.10;;
14040;SDS011;7095;51.388;6.196;2022-11-12T07:18:07;12.23;;;7.23;;
14040;SDS011;7095;51.388;6.196;2022-11-12T07:20:57;13.13;;;9.33;;
14040;SDS011;7095;51.388;6.196;2022-11-12T07:23:45;12.13;;;8.20;;
14040;SDS011;7095;51.388;6.196;2022-11-12T07:26:36;14.23;;;9.67;;
14040;SDS011;7095;51.388;6.196;2022-11-12T07:29:30;13.53;;;8.90;;
14040;SDS011;7095;51.388;6.196;2022-11-12T07:32:31;13.37;;;9.63;;
14040;SDS011;7095;51.388;6.196;2022-11-12T07:35:27;13.20;;;9.37;;
14040;SDS011;7095;51.388;6.196;2022-11-12T07:38:14;11.13;;;8.43;;
14040;SDS011;7095;51.388;6.196;2022-11-12T07:41:02;11.83;;;6.73;;
14040;SDS011;7095;51.388;6.196;2022-11-12T07:43:52;12.30;;;8.43;;
14040;SDS011;7095;51.388;6.196;2022-11-12T07:46:39;14.63;;;8.53;;
14040;SDS011;7095;51.388;6.196;2022-11-12T07:49:26;10.97;;;7.23;;
14040;SDS011;7095;51.388;6.196;2022-11-12T07:52:13;16.73;;;10.80;;
14040;SDS011;7095;51.388;6.196;2022-11-12T07:55:00;11.80;;;8.60;;
14040;SDS011;7095;51.388;6.196;2022-11-12T07:57:48;11.77;;;8.73;;
14040;SDS011;7095;51.388;6.196;2022-11-12T08:00:36;14.27;;;10.50;;
14040;SDS011;7095;51.388;6.196;2022-11-12T08:03:23;15.40;;;11.77;;
14040;SDS011;7095;51.388;6.196;2022-11-12T08:06:10;16.27;;;12.07;;
14040;SDS011;7095;51.388;6.196;2022-11-12T08:08:58;20.83;;;12.57;;
14040;SDS011;7095;51.388;6.196;2022-11-12T08:11:47;17.93;;;13.27;;
14040;SDS011;7095;51.388;6.196;2022-11-12T08:14:34;19.83;;;12.83;;
14040;SDS011;7095;51.388;6.196;2022-11-12T08:17:23;20.47;;;14.30;;
14040;SDS011;7095;51.388;6.196;2022-11-12T08:20:11;18.03;;;13.23;;
14040;SDS011;7095;51.388;6.196;2022-11-12T08:22:59;23.60;;;14.47;;
14040;SDS011;7095;51.388;6.196;2022-11-12T08:25:46;20.23;;;16.33;;
14040;SDS011;7095;51.388;6.196;2022-11-12T08:28:33;22.50;;;15.47;;
14040;SDS011;7095;51.388;6.196;2022-11-12T08:31:22;21.43;;;14.70;;
14040;SDS011;7095;51.388;6.196;2022-11-12T08:34:12;23.80;;;14.97;;
14040;SDS011;7095;51.388;6.196;2022-11-12T08:37:06;21.73;;;15.97;;
14040;SDS011;7095;51.388;6.196;2022-11-12T08:39:54;23.80;;;15.33;;
14040;SDS011;7095;51.388;6.196;2022-11-12T08:42:41;20.60;;;14.80;;
14040;SDS011;7095;51.388;6.196;2022-11-12T08:45:28;21.27;;;16.37;;
14040;SDS011;7095;51.388;6.196;2022-11-12T08:48:17;22.07;;;14.50;;
14040;SDS011;7095;51.388;6.196;2022-11-12T08:51:06;21.40;;;15.63;;
14040;SDS011;7095;51.388;6.196;2022-11-12T08:53:53;21.10;;;14.87;;
14040;SDS011;7095;51.388;6.196;2022-11-12T08:56:41;21.50;;;16.10;;
14040;SDS011;7095;51.388;6.196;2022-11-12T08:59:28;19.67;;;15.43;;
14040;SDS011;7095;51.388;6.196;2022-11-12T09:02:15;22.37;;;15.73;;
14040;SDS011;7095;51.388;6.196;2022-11-12T09:05:03;19.70;;;14.97;;
14040;SDS011;7095;51.388;6.196;2022-11-12T09:07:56;19.80;;;15.20;;
14040;SDS011;7095;51.388;6.196;2022-11-12T09:10:44;17.83;;;14.13;;
14040;SDS011;7095;51.388;6.196;2022-11-12T09:13:32;20.97;;;14.73;;
14040;SDS011;7095;51.388;6.196;2022-11-12T09:16:20;17.33;;;13.60;;
14040;SDS011;7095;51.388;6.196;2022-11-12T09:19:09;20.03;;;14.47;;
14040;SDS011;7095;51.388;6.196;2022-11-12T09:21:56;19.83;;;14.47;;
14040;SDS011;7095;51.388;6.196;2022-11-12T09:24:44;20.33;;;14.77;;
14040;SDS011;7095;51.388;6.196;2022-11-12T09:27:32;16.63;;;12.27;;
14040;SDS011;7095;51.388;6.196;2022-11-12T09:30:21;17.73;;;14.07;;
14040;SDS011;7095;51.388;6.196;2022-11-12T09:33:09;19.40;;;13.87;;
14040;SDS011;7095;51.388;6.196;2022-11-12T09:35:59;18.43;;;14.10;;
14040;SDS011;7095;51.388;6.196;2022-11-12T09:38:47;17.90;;;13.93;;
14040;SDS011;7095;51.388;6.196;2022-11-12T09:41:35;15.43;;;13.00;;
14040;SDS011;7095;51.388;6.196;2022-11-12T09:44:25;16.13;;;11.33;;
14040;SDS011;7095;51.388;6.196;2022-11-12T09:47:19;17.33;;;13.37;;
14040;SDS011;7095;51.388;6.196;2022-11-12T09:50:15;15.80;;;12.37;;
14040;SDS011;7095;51.388;6.196;2022-11-12T09:53:09;15.17;;;12.23;;
14040;SDS011;7095;51.388;6.196;2022-11-12T09:56:01;14.20;;;12.70;;
14040;SDS011;7095;51.388;6.196;2022-11-12T09:58:54;13.67;;;11.60;;
14040;SDS011;7095;51.388;6.196;2022-11-12T10:01:43;14.07;;;10.63;;
14040;SDS011;7095;51.388;6.196;2022-11-12T10:04:50;11.03;;;9.80;;
14040;SDS011;7095;51.388;6.196;2022-11-12T10:07:47;17.03;;;13.20;;
14040;SDS011;7095;51.388;6.196;2022-11-12T10:10:43;10.57;;;9.57;;
14040;SDS011;7095;51.388;6.196;2022-11-12T10:13:37;14.00;;;10.70;;
14040;SDS011;7095;51.388;6.196;2022-11-12T10:16:42;12.47;;;10.30;;
14040;SDS011;7095;51.388;6.196;2022-11-12T10:19:43;11.73;;;9.73;;
14040;SDS011;7095;51.388;6.196;2022-11-12T10:22:46;13.17;;;10.57;;
14040;SDS011;7095;51.388;6.196;2022-11-12T10:25:45;15.77;;;10.67;;
14040;SDS011;7095;51.388;6.196;2022-11-12T10:28:37;16.90;;;10.27;;
14040;SDS011;7095;51.388;6.196;2022-11-12T10:31:29;13.70;;;9.47;;
14040;SDS011;7095;51.388;6.196;2022-11-12T10:34:18;11.00;;;9.80;;
14040;SDS011;7095;51.388;6.196;2022-11-12T10:37:06;13.87;;;10.13;;
14040;SDS011;7095;51.388;6.196;2022-11-12T10:40:11;11.47;;;9.07;;
14040;SDS011;7095;51.388;6.196;2022-11-12T10:43:20;11.50;;;10.03;;
14040;SDS011;7095;51.388;6.196;2022-11-12T10:46:12;14.47;;;9.97;;
14040;SDS011;7095;51.388;6.196;2022-11-12T10:49:06;11.00;;;8.93;;
14040;SDS011;7095;51.388;6.196;2022-11-12T10:52:21;10.47;;;8.90;;
14040;SDS011;7095;51.388;6.196;2022-11-12T10:55:14;12.23;;;8.67;;
14040;SDS011;7095;51.388;6.196;2022-11-12T10:58:06;10.70;;;8.60;;
14040;SDS011;7095;51.388;6.196;2022-11-12T11:01:01;9.27;;;7.73;;
14040;SDS011;7095;51.388;6.196;2022-11-12T11:03:51;10.60;;;9.30;;
14040;SDS011;7095;51.388;6.196;2022-11-12T11:06:42;9.60;;;7.43;;
14040;SDS011;7095;51.388;6.196;2022-11-12T11:09:31;11.37;;;8.07;;
14040;SDS011;7095;51.388;6.196;2022-11-12T11:12:22;11.73;;;8.50;;
14040;SDS011;7095;51.388;6.196;2022-11-12T11:15:17;10.80;;;7.90;;
14040;SDS011;7095;51.388;6.196;2022-11-12T11:18:07;9.03;;;7.67;;
14040;SDS011;7095;51.388;6.196;2022-11-12T11:21:00;9.17;;;8.17;;
14040;SDS011;7095;51.388;6.196;2022-11-12T11:23:54;9.97;;;7.87;;
14040;SDS011;7095;51.388;6.196;2022-11-12T11:26:50;8.87;;;7.40;;
14040;SDS011;7095;51.388;6.196;2022-11-12T11:29:58;11.17;;;7.83;;
14040;SDS011;7095;51.388;6.196;2022-11-12T11:36:08;11.60;;;7.73;;
14040;SDS011;7095;51.388;6.196;2022-11-12T11:39:04;7.80;;;6.93;;
14040;SDS011;7095;51.388;6.196;2022-11-12T11:42:09;8.33;;;7.17;;
14040;SDS011;7095;51.388;6.196;2022-11-12T11:45:11;8.47;;;6.70;;
14040;SDS011;7095;51.388;6.196;2022-11-12T11:48:05;8.80;;;6.90;;
14040;SDS011;7095;51.388;6.196;2022-11-12T11:51:02;8.20;;;6.87;;
14040;SDS011;7095;51.388;6.196;2022-11-12T11:53:57;8.83;;;7.43;;
14040;SDS011;7095;51.388;6.196;2022-11-12T11:56:57;8.40;;;6.60;;
14040;SDS011;7095;51.388;6.196;2022-11-12T11:59:53;8.00;;;6.67;;
14040;SDS011;7095;51.388;6.196;2022-11-12T12:03:02;7.53;;;6.43;;
14040;SDS011;7095;51.388;6.196;2022-11-12T12:06:03;11.57;;;7.43;;
14040;SDS011;7095;51.388;6.196;2022-11-12T12:09:02;9.33;;;8.17;;
14040;SDS011;7095;51.388;6.196;2022-11-12T12:12:01;9.33;;;7.27;;
14040;SDS011;7095;51.388;6.196;2022-11-12T12:14:57;7.97;;;6.47;;
14040;SDS011;7095;51.388;6.196;2022-11-12T12:18:06;9.17;;;6.70;;
14040;SDS011;7095;51.388;6.196;2022-11-12T12:21:01;9.27;;;6.07;;
14040;SDS011;7095;51.388;6.196;2022-11-12T12:23:52;7.03;;;6.17;;
14040;SDS011;7095;51.388;6.196;2022-11-12T12:26:45;8.17;;;6.90;;
14040;SDS011;7095;51.388;6.196;2022-11-12T12:29:38;7.90;;;7.07;;
14040;SDS011;7095;51.388;6.196;2022-11-12T12:32:31;7.30;;;6.60;;
14040;SDS011;7095;51.388;6.196;2022-11-12T12:35:24;10.90;;;7.20;;
14040;SDS011;7095;51.388;6.196;2022-11-12T12:38:16;12.33;;;6.63;;
14040;SDS011;7095;51.388;6.196;2022-11-12T12:41:11;9.17;;;6.80;;
14040;SDS011;7095;51.388;6.196;2022-11-12T12:44:05;10.00;;;6.30;;
14040;SDS011;7095;51.388;6.196;2022-11-12T12:46:57;6.87;;;6.17;;
14040;SDS011;7095;51.388;6.196;2022-11-12T12:49:49;8.23;;;6.53;;
14040;SDS011;7095;51.388;6.196;2022-11-12T12:52:57;8.80;;;6.13;;
14040;SDS011;7095;51.388;6.196;2022-11-12T12:55:46;8.27;;;5.80;;
14040;SDS011;7095;51.388;6.196;2022-11-12T12:58:40;11.90;;;6.10;;
14040;SDS011;7095;51.388;6.196;2022-11-12T13:01:30;8.30;;;6.63;;
14040;SDS011;7095;51.388;6.196;2022-11-12T13:07:40;14.90;;;6.43;;
14040;SDS011;7095;51.388;6.196;2022-11-12T13:13:38;8.43;;;6.50;;
14040;SDS011;7095;51.388;6.196;2022-11-12T13:19:43;6.73;;;5.70;;
14040;SDS011;7095;51.388;6.196;2022-11-12T13:22:44;6.80;;;6.13;;
14040;SDS011;7095;51.388;6.196;2022-11-12T13:25:36;7.40;;;5.23;;
14040;SDS011;7095;51.388;6.196;2022-11-12T13:28:23;11.87;;;5.87;;
14040;SDS011;7095;51.388;6.196;2022-11-12T13:31:24;11.83;;;5.53;;
14040;SDS011;7095;51.388;6.196;2022-11-12T13:34:17;9.97;;;5.37;;
14040;SDS011;7095;51.388;6.196;2022-11-12T13:37:11;9.10;;;5.70;;
14040;SDS011;7095;51.388;6.196;2022-11-12T13:40:09;11.27;;;6.00;;
14040;SDS011;7095;51.388;6.196;2022-11-12T13:43:04;8.17;;;5.63;;
14040;SDS011;7095;51.388;6.196;2022-11-12T13:45:58;7.97;;;5.77;;
14040;SDS011;7095;51.388;6.196;2022-11-12T13:49:09;8.13;;;5.80;;
14040;SDS011;7095;51.388;6.196;2022-11-12T13:51:58;5.47;;;4.97;;
14040;SDS011;7095;51.388;6.196;2022-11-12T13:54:46;7.47;;;5.43;;
14040;SDS011;7095;51.388;6.196;2022-11-12T13:57:49;8.43;;;5.40;;
14040;SDS011;7095;51.388;6.196;2022-11-12T14:00:38;8.77;;;5.47;;
14040;SDS011;7095;51.388;6.196;2022-11-12T14:03:27;8.10;;;5.07;;
14040;SDS011;7095;51.388;6.196;2022-11-12T14:06:17;6.57;;;5.17;;
14040;SDS011;7095;51.388;6.196;2022-11-12T14:09:19;8.93;;;5.53;;
14040;SDS011;7095;51.388;6.196;2022-11-12T14:12:20;6.80;;;5.13;;
14040;SDS011;7095;51.388;6.196;2022-11-12T14:15:30;6.90;;;5.27;;
14040;SDS011;7095;51.388;6.196;2022-11-12T14:18:29;6.50;;;4.87;;
14040;SDS011;7095;51.388;6.196;2022-11-12T14:21:29;7.70;;;5.00;;
14040;SDS011;7095;51.388;6.196;2022-11-12T14:24:16;5.90;;;5.30;;
14040;SDS011;7095;51.388;6.196;2022-11-12T14:27:04;8.53;;;5.47;;
14040;SDS011;7095;51.388;6.196;2022-11-12T14:30:03;7.10;;;4.93;;
14040;SDS011;7095;51.388;6.196;2022-11-12T14:32:58;6.07;;;4.90;;
14040;SDS011;7095;51.388;6.196;2022-11-12T14:35:53;7.17;;;5.03;;
14040;SDS011;7095;51.388;6.196;2022-11-12T14:38:46;8.50;;;5.00;;
14040;SDS011;7095;51.388;6.196;2022-11-12T14:41:36;5.73;;;4.43;;
14040;SDS011;7095;51.388;6.196;2022-11-12T14:44:31;6.07;;;4.73;;
14040;SDS011;7095;51.388;6.196;2022-11-12T14:47:21;10.07;;;4.90;;
14040;SDS011;7095;51.388;6.196;2022-11-12T14:50:13;10.93;;;5.27;;
14040;SDS011;7095;51.388;6.196;2022-11-12T14:53:04;6.23;;;5.03;;
14040;SDS011;7095;51.388;6.196;2022-11-12T14:55:55;6.27;;;4.80;;
14040;SDS011;7095;51.388;6.196;2022-11-12T14:58:44;16.03;;;5.93;;
14040;SDS011;7095;51.388;6.196;2022-11-12T15:01:33;53.10;;;7.77;;
14040;SDS011;7095;51.388;6.196;2022-11-12T15:04:42;20.80;;;6.13;;
14040;SDS011;7095;51.388;6.196;2022-11-12T15:07:33;13.00;;;4.90;;
14040;SDS011;7095;51.388;6.196;2022-11-12T15:10:29;5.20;;;4.63;;
14040;SDS011;7095;51.388;6.196;2022-11-12T15:13:19;6.07;;;4.70;;
14040;SDS011;7095;51.388;6.196;2022-11-12T15:16:14;8.77;;;5.20;;
14040;SDS011;7095;51.388;6.196;2022-11-12T15:19:13;6.10;;;4.30;;
14040;SDS011;7095;51.388;6.196;2022-11-12T15:22:04;5.43;;;3.90;;
14040;SDS011;7095;51.388;6.196;2022-11-12T15:24:52;8.80;;;4.87;;
14040;SDS011;7095;51.388;6.196;2022-11-12T15:27:40;8.60;;;4.63;;
14040;SDS011;7095;51.388;6.196;2022-11-12T15:30:29;6.53;;;4.20;;
14040;SDS011;7095;51.388;6.196;2022-11-12T15:33:20;6.30;;;4.73;;
14040;SDS011;7095;51.388;6.196;2022-11-12T15:36:13;6.43;;;4.40;;
14040;SDS011;7095;51.388;6.196;2022-11-12T15:39:03;4.80;;;3.70;;
14040;SDS011;7095;51.388;6.196;2022-11-12T15:42:01;9.43;;;5.13;;
14040;SDS011;7095;51.388;6.196;2022-11-12T15:44:49;6.60;;;4.17;;
14040;SDS011;7095;51.388;6.196;2022-11-12T15:47:37;7.87;;;4.40;;
14040;SDS011;7095;51.388;6.196;2022-11-12T15:50:25;7.67;;;4.77;;
14040;SDS011;7095;51.388;6.196;2022-11-12T15:53:12;12.00;;;5.17;;
14040;SDS011;7095;51.388;6.196;2022-11-12T15:56:00;7.97;;;5.03;;
14040;SDS011;7095;51.388;6.196;2022-11-12T15:58:49;7.03;;;4.23;;
14040;SDS011;7095;51.388;6.196;2022-11-12T16:01:36;8.93;;;5.57;;
14040;SDS011;7095;51.388;6.196;2022-11-12T16:04:23;7.47;;;5.20;;
14040;SDS011;7095;51.388;6.196;2022-11-12T16:07:10;10.53;;;5.10;;
14040;SDS011;7095;51.388;6.196;2022-11-12T16:09:57;22.43;;;11.80;;
14040;SDS011;7095;51.388;6.196;2022-11-12T16:12:45;35.37;;;23.00;;
14040;SDS011;7095;51.388;6.196;2022-11-12T16:15:34;16.10;;;10.97;;
14040;SDS011;7095;51.388;6.196;2022-11-12T16:18:22;13.87;;;7.37;;
14040;SDS011;7095;51.388;6.196;2022-11-12T16:21:09;10.80;;;6.10;;
14040;SDS011;7095;51.388;6.196;2022-11-12T16:24:02;13.17;;;7.80;;
14040;SDS011;7095;51.388;6.196;2022-11-12T16:26:49;8.30;;;6.63;;
14040;SDS011;7095;51.388;6.196;2022-11-12T16:29:37;8.37;;;6.50;;
14040;SDS011;7095;51.388;6.196;2022-11-12T16:32:26;9.27;;;5.67;;
14040;SDS011;7095;51.388;6.196;2022-11-12T16:35:13;14.10;;;5.97;;
14040;SDS011;7095;51.388;6.196;2022-11-12T16:38:00;9.00;;;6.10;;
14040;SDS011;7095;51.388;6.196;2022-11-12T16:40:48;8.63;;;5.70;;
14040;SDS011;7095;51.388;6.196;2022-11-12T16:43:35;8.63;;;5.43;;
14040;SDS011;7095;51.388;6.196;2022-11-12T16:46:23;8.53;;;5.83;;
14040;SDS011;7095;51.388;6.196;2022-11-12T16:49:15;9.50;;;5.23;;
14040;SDS011;7095;51.388;6.196;2022-11-12T16:52:07;7.40;;;4.50;;
14040;SDS011;7095;51.388;6.196;2022-11-12T16:54:55;10.70;;;5.00;;
14040;SDS011;7095;51.388;6.196;2022-11-12T16:57:48;7.60;;;4.80;;
14040;SDS011;7095;51.388;6.196;2022-11-12T17:00:35;10.83;;;5.20;;
14040;SDS011;7095;51.388;6.196;2022-11-12T17:03:23;7.93;;;5.13;;
14040;SDS011;7095;51.388;6.196;2022-11-12T17:06:12;6.80;;;5.30;;
14040;SDS011;7095;51.388;6.196;2022-11-12T17:08:59;5.70;;;4.60;;
14040;SDS011;7095;51.388;6.196;2022-11-12T17:11:46;8.13;;;4.63;;
14040;SDS011;7095;51.388;6.196;2022-11-12T17:14:33;8.90;;;5.17;;
14040;SDS011;7095;51.388;6.196;2022-11-12T17:17:21;8.63;;;5.07;;
14040;SDS011;7095;51.388;6.196;2022-11-12T17:20:08;7.90;;;6.20;;
14040;SDS011;7095;51.388;6.196;2022-11-12T17:22:57;11.67;;;7.87;;
14040;SDS011;7095;51.388;6.196;2022-11-12T17:25:45;10.50;;;7.03;;